createdAt,value
2022-12-23T00:03:16.075Z,30.23
2022-12-23T00:08:18.223Z,35.63
2022-12-23T00:13:38.958Z,31.10
2022-12-23T00:18:41.940Z,34.20
2022-12-23T00:23:48.114Z,31.80
2022-12-23T00:28:50.462Z,36.43
2022-12-23T00:33:53.590Z,41.77
2022-12-23T00:39:19.542Z,46.03
2022-12-23T00:44:28.355Z,38.07
2022-12-23T00:49:41.971Z,31.93
2022-12-23T00:54:48.501Z,34.27
2022-12-23T00:59:50.253Z,29.10
2022-12-23T01:05:10.520Z,39.57
2022-12-23T01:10:14.581Z,46.60
2022-12-23T01:15:17.441Z,54.00
2022-12-23T01:20:22.602Z,49.87
2022-12-23T01:25:26.550Z,53.63
2022-12-23T01:30:31.229Z,45.50
2022-12-23T01:35:34.579Z,53.10
2022-12-23T01:40:39.614Z,68.63
2022-12-23T01:45:50.347Z,55.73
2022-12-23T01:50:56.360Z,55.00
2022-12-23T01:56:00.992Z,39.73
2022-12-23T02:01:21.213Z,38.47
2022-12-23T02:07:07.491Z,33.63
2022-12-23T02:12:37.156Z,38.47
2022-12-23T02:18:01.627Z,52.20
2022-12-23T02:23:06.553Z,53.90
2022-12-23T02:28:45.457Z,56.43
2022-12-23T02:33:55.383Z,47.60
2022-12-23T02:39:17.203Z,56.97
2022-12-23T02:44:40.650Z,57.07
2022-12-23T02:49:48.999Z,52.83
2022-12-23T02:54:59.091Z,50.57
2022-12-23T03:00:01.711Z,52.30
2022-12-23T03:05:23.036Z,50.20
2022-12-23T03:10:45.507Z,54.10
2022-12-23T03:16:25.937Z,62.07
2022-12-23T03:21:41.120Z,45.03
2022-12-23T03:26:45.504Z,48.03
2022-12-23T03:31:47.626Z,53.20
2022-12-23T03:36:52.329Z,54.50
2022-12-23T03:42:02.629Z,58.80
2022-12-23T03:47:11.500Z,54.57
2022-12-23T03:52:21.923Z,54.60
2022-12-23T03:57:28.739Z,52.77
2022-12-23T04:02:51.102Z,55.70
2022-12-23T04:08:05.180Z,54.23
2022-12-23T04:13:10.804Z,44.40
2022-12-23T04:18:12.599Z,52.00
2022-12-23T04:23:19.062Z,56.03
2022-12-23T04:28:20.818Z,56.17
2022-12-23T04:33:24.884Z,57.13
2022-12-23T04:38:29.215Z,55.07
2022-12-23T04:43:33.168Z,57.27
2022-12-23T04:48:35.770Z,53.40
2022-12-23T04:53:39.834Z,58.57
2022-12-23T04:58:41.567Z,58.60
2022-12-23T05:03:43.272Z,52.33
2022-12-23T05:08:47.966Z,51.13
2022-12-23T05:13:49.685Z,57.57
2022-12-23T05:18:58.111Z,69.73
2022-12-23T05:23:59.848Z,58.20
2022-12-23T05:29:02.563Z,61.50
2022-12-23T05:34:06.796Z,59.93
2022-12-23T05:39:14.328Z,56.27
2022-12-23T05:44:18.550Z,56.73
2022-12-23T05:49:23.222Z,55.20
2022-12-23T05:54:25.619Z,47.10
2022-12-23T05:59:31.665Z,46.07
2022-12-23T06:04:33.605Z,38.83
2022-12-23T06:09:40.164Z,35.03
2022-12-23T06:14:44.204Z,32.13
2022-12-23T06:19:48.971Z,40.63
2022-12-23T06:24:53.227Z,42.70
2022-12-23T06:29:55.060Z,45.70
2022-12-23T06:34:57.708Z,39.53
2022-12-23T06:40:04.221Z,40.77
2022-12-23T06:45:08.698Z,40.17
2022-12-23T06:50:13.463Z,40.97
2022-12-23T06:55:18.307Z,37.10
2022-12-23T07:00:20.236Z,38.03
2022-12-23T07:05:22.072Z,34.43
2022-12-23T07:10:26.035Z,35.60
2022-12-23T07:15:30.549Z,36.13
2022-12-23T07:20:34.611Z,34.93
2022-12-23T07:25:39.326Z,35.50
2022-12-23T07:30:41.050Z,34.57
2022-12-23T07:35:45.452Z,37.37
2022-12-23T07:40:51.948Z,33.80
2022-12-23T07:46:08.604Z,32.20
2022-12-23T07:51:10.399Z,26.77
2022-12-23T07:56:14.448Z,35.57
2022-12-23T08:01:21.526Z,33.70
2022-12-23T08:06:25.449Z,37.23
2022-12-23T08:11:31.967Z,17.17
2022-12-23T08:16:39.591Z,13.83
2022-12-23T08:21:47.319Z,11.77
2022-12-23T08:26:51.316Z,9.00
2022-12-23T08:31:58.270Z,8.77
2022-12-23T08:37:04.523Z,7.10
2022-12-23T08:42:12.236Z,5.90
2022-12-23T08:47:19.205Z,5.20
2022-12-23T08:52:25.952Z,4.38
2022-12-23T08:57:29.072Z,3.92
2022-12-23T09:02:35.489Z,3.53
2022-12-23T09:07:40.433Z,2.78
2022-12-23T09:12:44.906Z,2.50
2022-12-23T09:17:49.229Z,2.13
2022-12-23T09:22:53.523Z,2.42
2022-12-23T09:27:59.774Z,1.77
2022-12-23T09:33:06.773Z,1.85
2022-12-23T09:38:08.908Z,2.22
2022-12-23T09:43:29.684Z,2.10
2022-12-23T09:48:58.818Z,1.83
2022-12-23T09:54:24.647Z,2.15
2022-12-23T09:59:50.462Z,1.98
2022-12-23T10:05:23.431Z,1.65
2022-12-23T10:10:34.452Z,1.60
2022-12-23T10:15:44.321Z,1.42
2022-12-23T10:20:54.153Z,1.35
2022-12-23T10:26:01.588Z,1.48
2022-12-23T10:31:30.874Z,2.00
2022-12-23T10:36:50.677Z,1.90
2022-12-23T10:42:05.860Z,1.60
2022-12-23T10:47:36.455Z,1.50
2022-12-23T10:52:41.394Z,1.55
2022-12-23T10:57:46.183Z,1.42
2022-12-23T11:03:38.172Z,1.70
2022-12-23T11:08:40.800Z,1.58
2022-12-23T11:13:46.579Z,1.77
2022-12-23T11:19:05.825Z,1.80
2022-12-23T11:24:19.269Z,1.95
2022-12-23T11:29:23.907Z,1.48
2022-12-23T11:34:26.700Z,1.55
2022-12-23T11:39:39.519Z,1.52
2022-12-23T11:44:44.310Z,2.95
2022-12-23T11:49:56.544Z,2.00
2022-12-23T11:55:04.319Z,1.77
2022-12-23T12:00:09.100Z,2.03
2022-12-23T12:05:26.026Z,2.08
2022-12-23T12:10:33.004Z,1.90
2022-12-23T12:15:48.587Z,2.00
2022-12-23T12:20:56.043Z,1.98
2022-12-23T12:26:08.099Z,2.28
2022-12-23T12:31:23.495Z,1.75
2022-12-23T12:36:55.345Z,2.30
2022-12-23T12:42:11.659Z,1.95
2022-12-23T12:52:42.158Z,2.25
2022-12-23T12:57:44.929Z,2.17
2022-12-23T13:03:04.814Z,1.85
2022-12-23T13:08:42.649Z,1.80
2022-12-23T13:14:02.925Z,1.65
2022-12-23T13:19:22.470Z,1.55
2022-12-23T13:25:04.564Z,1.55
2022-12-23T13:30:17.704Z,1.90
2022-12-23T13:35:46.946Z,1.75
2022-12-23T13:40:57.763Z,1.33
2022-12-23T13:46:05.074Z,1.67
2022-12-23T13:51:15.207Z,1.38
2022-12-23T13:56:35.345Z,1.58
2022-12-23T14:01:42.449Z,1.70
2022-12-23T14:06:44.939Z,1.67
2022-12-23T14:11:49.089Z,1.40
2022-12-23T14:17:16.341Z,1.73
2022-12-23T14:22:21.252Z,1.60
2022-12-23T14:27:41.970Z,1.58
2022-12-23T14:32:53.764Z,1.95
2022-12-23T14:38:16.849Z,1.70
2022-12-23T14:43:51.291Z,1.40
2022-12-23T14:49:22.470Z,1.40
2022-12-23T14:54:37.989Z,1.48
2022-12-23T14:59:51.452Z,1.35
2022-12-23T15:04:58.087Z,1.33
2022-12-23T15:10:26.169Z,1.20
2022-12-23T15:15:29.795Z,1.50
2022-12-23T15:20:35.234Z,1.40
2022-12-23T15:25:51.456Z,1.38
2022-12-23T15:30:56.731Z,1.50
2022-12-23T15:36:01.924Z,1.50
2022-12-23T15:41:16.134Z,1.40
2022-12-23T15:46:28.998Z,1.50
2022-12-23T15:52:05.852Z,1.65
2022-12-23T15:56:57.994Z,6.43
2022-12-23T16:02:49.579Z,4.93
2022-12-23T16:07:39.269Z,4.75
2022-12-23T16:12:41.808Z,4.10
2022-12-23T16:17:46.180Z,4.22
2022-12-23T16:22:51.145Z,3.78
2022-12-23T16:28:06.040Z,3.40
2022-12-23T16:33:28.023Z,3.17
2022-12-23T16:38:34.836Z,3.10
2022-12-23T16:43:38.558Z,2.95
2022-12-23T16:48:48.174Z,3.42
2022-12-23T16:53:55.301Z,2.88
2022-12-23T16:58:57.046Z,2.80
2022-12-23T17:04:04.564Z,2.78
2022-12-23T17:09:09.579Z,2.88
2022-12-23T17:14:21.653Z,2.47
2022-12-23T17:19:28.912Z,2.53
2022-12-23T17:24:31.452Z,2.45
2022-12-23T17:29:34.878Z,2.33
2022-12-23T17:34:40.055Z,2.22
2022-12-23T17:39:42.977Z,2.50
2022-12-23T17:44:47.445Z,2.40
2022-12-23T17:49:49.630Z,2.33
2022-12-23T17:54:51.582Z,2.45
2022-12-23T17:59:54.356Z,2.17
2022-12-23T18:04:56.270Z,2.20
2022-12-23T18:10:00.213Z,2.20
2022-12-23T18:15:02.978Z,2.45
2022-12-23T18:20:09.312Z,2.33
2022-12-23T18:25:22.808Z,2.60
2022-12-23T18:30:27.598Z,2.28
2022-12-23T18:35:35.368Z,2.20
2022-12-23T18:40:40.163Z,2.40
2022-12-23T18:45:50.699Z,2.45
2022-12-23T18:50:54.459Z,2.45
2022-12-23T18:55:56.194Z,2.30
2022-12-23T19:00:58.044Z,2.20
2022-12-23T19:06:06.492Z,2.50
2022-12-23T19:11:20.723Z,2.20
2022-12-23T19:16:22.755Z,2.33
2022-12-23T19:21:24.600Z,2.28
2022-12-23T19:26:31.020Z,2.20
2022-12-23T19:31:34.986Z,2.42
2022-12-23T19:36:39.848Z,2.40
2022-12-23T19:41:49.118Z,2.15
2022-12-23T19:46:53.208Z,2.10
2022-12-23T19:52:00.948Z,2.30
2022-12-23T19:57:07.198Z,2.15
2022-12-23T20:02:15.643Z,2.13
2022-12-23T20:07:17.560Z,2.28
2022-12-23T20:12:19.352Z,2.05
2022-12-23T20:17:21.050Z,2.28
2022-12-23T20:22:25.676Z,2.00
2022-12-23T20:27:28.273Z,1.80
2022-12-23T20:32:31.274Z,2.13
2022-12-23T20:37:33.624Z,1.98
2022-12-23T20:42:37.685Z,2.00
2022-12-23T20:47:42.177Z,2.00
2022-12-23T20:52:46.299Z,1.90
2022-12-23T20:57:48.159Z,1.92
2022-12-23T21:02:53.112Z,2.08
2022-12-23T21:07:54.968Z,2.30
2022-12-23T21:12:59.099Z,2.15
2022-12-23T21:18:01.060Z,2.20
2022-12-23T21:23:09.396Z,22.95
2022-12-23T21:28:16.181Z,25.70
2022-12-23T21:33:22.229Z,33.07
2022-12-23T21:38:32.279Z,28.97
2022-12-23T21:43:34.291Z,28.17
2022-12-23T21:48:36.784Z,33.13
2022-12-23T21:53:39.145Z,31.83
2022-12-23T21:58:41.617Z,27.53
2022-12-23T22:03:48.429Z,27.80
2022-12-23T22:08:54.635Z,30.30
2022-12-23T22:13:57.925Z,30.77
2022-12-23T22:19:04.988Z,29.77
2022-12-23T22:24:07.252Z,29.87
2022-12-23T22:29:10.801Z,28.47
2022-12-23T22:34:18.393Z,29.33
2022-12-23T22:39:21.958Z,28.03
2022-12-23T22:44:26.011Z,31.43
2022-12-23T22:49:28.125Z,32.50
2022-12-23T22:54:29.889Z,29.50
2022-12-23T22:59:34.572Z,32.13
2022-12-23T23:04:36.439Z,31.87
2022-12-23T23:09:38.172Z,30.40
2022-12-23T23:14:55.018Z,31.33
2022-12-23T23:19:58.835Z,30.67
2022-12-23T23:25:00.759Z,33.13
2022-12-23T23:30:07.547Z,33.53
2022-12-23T23:35:11.027Z,31.90
2022-12-23T23:40:13.186Z,34.10
2022-12-23T23:45:14.918Z,35.50
2022-12-23T23:50:20.127Z,32.97
2022-12-23T23:55:21.939Z,34.27
